Time;durP1;ratioP1;P1;durP2;ratioP2;P2;SDS_P1;SDS_P2;PMS_P1;PMS_P2;Temp;Humidity;BMP_temperature;BMP_pressure;BME280_temperature;BME280_humidity;BME280_pressure;Samples;Min_cycle;Max_cycle;Signal;HPM_P1;HPM_P2
2022/01/26 00:00:05;;;;;;;52.30;12.77;;;;;;;;;;10355954;28;20038;-69
2022/01/26 00:10:44;;;;;;;16.70;5.60;;;;;;;;;;10159231;29;20040;-69
2022/01/26 00:15:48;;;;;;;39.37;10.77;;;;;;;;;;10293685;28;20053;-69
2022/01/26 00:20:55;;;;;;;47.50;11.80;;;;;;;;;;10356173;28;20042;-69
2022/01/26 00:26:06;;;;;;;40.10;11.17;;;;;;;;;;10358130;28;20454;-67
2022/01/26 00:32:00;;;;;;;22.43;8.37;;;;;;;;;;10353888;28;20041;-68
2022/01/26 00:41:58;;;;;;;43.10;11.90;;;;;;;;;;10355887;28;20042;-69
2022/01/26 00:47:03;;;;;;;33.50;9.93;;;;;;;;;;10358540;28;20136;-69
2022/01/26 00:52:11;;;;;;;38.13;11.80;;;;;;;;;;10355985;28;20580;-69
2022/01/26 00:57:15;;;;;;;43.73;11.67;;;;;;;;;;10353116;28;20038;-69
2022/01/26 01:02:19;;;;;;;28.30;8.53;;;;;;;;;;10339879;28;20042;-70
2022/01/26 01:07:23;;;;;;;25.00;7.70;;;;;;;;;;10345448;28;20367;-70
2022/01/26 01:12:26;;;;;;;37.53;10.48;;;;;;;;;;10347577;28;20053;-70
2022/01/26 01:17:37;;;;;;;13.23;4.23;;;;;;;;;;10349309;28;20129;-70
2022/01/26 01:22:52;;;;;;;19.93;6.20;;;;;;;;;;10369617;28;20034;-70
2022/01/26 01:33:20;;;;;;;36.90;10.57;;;;;;;;;;10352576;28;20033;-71
2022/01/26 01:38:26;;;;;;;8.23;3.00;;;;;;;;;;10358845;28;20042;-68
2022/01/26 01:43:29;;;;;;;28.13;8.33;;;;;;;;;;10361120;28;20037;-70
2022/01/26 01:48:34;;;;;;;16.43;6.43;;;;;;;;;;10370955;28;20042;-71
2022/01/26 01:53:40;;;;;;;19.40;5.70;;;;;;;;;;10367134;28;20086;-70
2022/01/26 01:58:43;;;;;;;32.07;9.67;;;;;;;;;;10370229;28;20034;-70
2022/01/26 02:03:48;;;;;;;41.22;12.07;;;;;;;;;;10352601;28;20517;-70
2022/01/26 02:08:51;;;;;;;27.27;8.67;;;;;;;;;;10340915;28;20137;-70
2022/01/26 02:14:00;;;;;;;31.00;7.93;;;;;;;;;;10335990;28;20065;-70
2022/01/26 02:19:37;;;;;;;30.90;9.17;;;;;;;;;;10354201;28;20422;-71
2022/01/26 02:56:57;;;;;;;25.07;7.37;;;;;;;;;;10357205;28;20463;-75
2022/01/26 03:02:02;;;;;;;23.87;5.63;;;;;;;;;;10360134;28;20125;-73
2022/01/26 03:07:11;;;;;;;43.47;10.87;;;;;;;;;;10360918;28;20487;-75
2022/01/26 03:12:26;;;;;;;38.63;9.97;;;;;;;;;;10346500;28;20129;-76
2022/01/26 03:17:44;;;;;;;30.07;8.23;;;;;;;;;;10353994;28;20046;-75
2022/01/26 03:28:23;;;;;;;36.63;9.77;;;;;;;;;;10356498;28;20038;-76
2022/01/26 03:33:50;;;;;;;31.47;9.27;;;;;;;;;;10349705;28;20481;-76
2022/01/26 03:38:58;;;;;;;38.67;9.53;;;;;;;;;;10354552;28;20033;-76
2022/01/26 03:44:03;;;;;;;28.03;8.57;;;;;;;;;;10360673;28;20181;-76
2022/01/26 03:49:07;;;;;;;28.47;8.03;;;;;;;;;;10356052;28;20498;-77
2022/01/26 03:54:11;;;;;;;24.42;7.10;;;;;;;;;;10352612;28;20044;-75
2022/01/26 03:59:15;;;;;;;35.78;9.82;;;;;;;;;;10357278;28;20037;-75
2022/01/26 04:04:18;;;;;;;46.50;10.73;;;;;;;;;;10354525;28;20052;-76
2022/01/26 04:09:21;;;;;;;35.70;10.00;;;;;;;;;;10356289;28;20099;-77
2022/01/26 04:14:29;;;;;;;21.47;6.37;;;;;;;;;;10351583;28;20262;-76
2022/01/26 04:19:35;;;;;;;32.20;8.90;;;;;;;;;;10355240;28;20041;-76
2022/01/26 04:24:42;;;;;;;14.83;6.10;;;;;;;;;;10356138;28;20066;-75
2022/01/26 04:29:47;;;;;;;27.73;7.97;;;;;;;;;;10334049;28;20119;-76
2022/01/26 04:34:51;;;;;;;22.90;6.53;;;;;;;;;;10336710;28;20092;-74
2022/01/26 04:39:58;;;;;;;41.43;11.20;;;;;;;;;;10356894;28;20045;-75
2022/01/26 04:45:06;;;;;;;31.80;9.50;;;;;;;;;;10363053;28;20489;-76
2022/01/26 04:50:10;;;;;;;24.53;7.10;;;;;;;;;;10353489;28;20498;-74
2022/01/26 04:55:14;;;;;;;40.37;10.70;;;;;;;;;;10353264;28;20141;-74
2022/01/26 05:00:19;;;;;;;39.90;11.38;;;;;;;;;;10334258;28;20072;-75
2022/01/26 05:05:21;;;;;;;;;;;;;;;;;;10354767;28;20120;-75
2022/01/26 05:10:24;;;;;;;23.20;8.07;;;;;;;;;;10357579;28;19932;-74
2022/01/26 05:15:28;;;;;;;18.33;6.03;;;;;;;;;;10342350;28;20164;-74
2022/01/26 05:20:32;;;;;;;31.93;9.63;;;;;;;;;;10355653;28;20048;-74
2022/01/26 05:25:35;;;;;;;26.77;9.02;;;;;;;;;;10358556;28;20035;-75
2022/01/26 05:30:40;;;;;;;25.57;7.37;;;;;;;;;;10343630;28;20088;-75
2022/01/26 05:35:43;;;;;;;37.45;10.95;;;;;;;;;;10342964;28;20034;-75
2022/01/26 05:40:46;;;;;;;31.10;7.57;;;;;;;;;;10351161;28;20084;-74
2022/01/26 05:45:54;;;;;;;23.80;7.90;;;;;;;;;;10360236;28;20123;-76
2022/01/26 05:51:05;;;;;;;47.57;11.87;;;;;;;;;;10358726;28;20034;-73
2022/01/26 05:56:08;;;;;;;16.97;6.60;;;;;;;;;;10360912;28;20069;-75
2022/01/26 06:01:14;;;;;;;30.43;10.07;;;;;;;;;;10342839;28;20109;-75
2022/01/26 06:06:17;;;;;;;14.40;5.07;;;;;;;;;;10346769;28;20041;-73
2022/01/26 06:11:20;;;;;;;34.10;11.97;;;;;;;;;;10361381;28;20034;-75
2022/01/26 06:16:26;;;;;;;34.87;11.03;;;;;;;;;;10360388;28;20225;-77
2022/01/26 06:21:29;;;;;;;34.13;10.80;;;;;;;;;;10340276;28;20516;-77
2022/01/26 06:26:32;;;;;;;34.10;9.60;;;;;;;;;;10357272;28;20132;-74
2022/01/26 06:31:40;;;;;;;28.40;9.67;;;;;;;;;;10356684;28;20037;-73
2022/01/26 06:36:43;;;;;;;7.53;2.97;;;;;;;;;;10361327;28;20040;-76
2022/01/26 06:41:50;;;;;;;15.50;6.43;;;;;;;;;;10354799;28;20133;-75
2022/01/26 06:47:04;;;;;;;29.53;8.07;;;;;;;;;;10351829;28;20036;-75
2022/01/26 06:52:07;;;;;;;23.83;8.07;;;;;;;;;;10352690;28;20044;-75
2022/01/26 06:57:10;;;;;;;14.97;5.30;;;;;;;;;;10338137;28;20465;-75
2022/01/26 07:02:14;;;;;;;25.43;7.80;;;;;;;;;;10357181;28;20398;-75
2022/01/26 07:07:18;;;;;;;22.93;8.50;;;;;;;;;;10346051;28;20030;-76
2022/01/26 07:12:20;;;;;;;12.37;4.70;;;;;;;;;;10356222;28;20125;-77
2022/01/26 07:22:45;;;;;;;33.40;9.47;;;;;;;;;;10353323;28;20141;-72
2022/01/26 07:27:48;;;;;;;26.13;8.57;;;;;;;;;;10356817;28;20133;-76
2022/01/26 07:32:52;;;;;;;30.17;8.93;;;;;;;;;;10356825;28;20025;-77
2022/01/26 07:37:58;;;;;;;29.00;9.27;;;;;;;;;;10358091;28;20221;-75
2022/01/26 07:43:00;;;;;;;24.48;10.00;;;;;;;;;;10334661;28;20065;-76
2022/01/26 07:48:05;;;;;;;27.17;8.73;;;;;;;;;;10354486;28;20036;-76
2022/01/26 07:53:13;;;;;;;24.25;9.68;;;;;;;;;;10361580;28;20066;-76
2022/01/26 07:58:17;;;;;;;28.00;10.07;;;;;;;;;;10354843;28;20122;-77
2022/01/26 08:03:22;;;;;;;25.80;10.05;;;;;;;;;;10368705;28;20318;-77
2022/01/26 08:08:26;;;;;;;22.30;9.52;;;;;;;;;;10344861;28;20107;-75
2022/01/26 08:13:29;;;;;;;;;;;;;;;;;;10363051;28;20485;-74
2022/01/26 08:18:33;;;;;;;21.95;10.20;;;;;;;;;;10359760;28;19937;-74
2022/01/26 08:29:00;;;;;;;19.77;9.70;;;;;;;;;;10304070;28;20051;-71
2022/01/26 08:34:04;;;;;;;20.80;10.07;;;;;;;;;;10303404;28;20034;-72
2022/01/26 08:39:07;;;;;;;21.27;10.80;;;;;;;;;;10305451;28;20103;-71
2022/01/26 08:44:10;;;;;;;;;;;;;;;;;;10300210;28;20549;-71
2022/01/26 08:49:15;;;;;;;25.05;12.77;;;;;;;;;;10297004;28;19922;-71
2022/01/26 08:54:20;;;;;;;23.17;11.40;;;;;;;;;;10314082;28;20122;-71
2022/01/26 08:59:23;;;;;;;25.65;12.38;;;;;;;;;;10305881;28;20039;-70
2022/01/26 09:04:28;;;;;;;24.52;12.60;;;;;;;;;;10300082;28;20416;-70
2022/01/26 09:09:41;;;;;;;30.67;13.25;;;;;;;;;;10305112;28;20042;-72
2022/01/26 09:14:44;;;;;;;23.95;12.50;;;;;;;;;;10298592;28;20080;-70
2022/01/26 09:19:48;;;;;;;;;;;;;;;;;;10305175;28;20063;-69
2022/01/26 09:24:53;;;;;;;24.17;12.65;;;;;;;;;;10301541;28;19937;-72
2022/01/26 09:29:56;;;;;;;22.30;12.00;;;;;;;;;;10292068;28;20490;-71
2022/01/26 09:34:59;;;;;;;19.08;10.35;;;;;;;;;;10295945;28;20388;-69
2022/01/26 09:40:03;;;;;;;22.52;11.43;;;;;;;;;;10292963;28;20046;-72
2022/01/26 09:45:07;;;;;;;22.17;11.75;;;;;;;;;;10294602;28;20049;-72
2022/01/26 09:50:10;;;;;;;19.25;11.40;;;;;;;;;;10297905;28;20593;-71
2022/01/26 09:55:14;;;;;;;;;;;;;;;;;;10304764;28;20065;-72
2022/01/26 10:00:19;;;;;;;23.23;12.68;;;;;;;;;;10309250;28;20023;-72
2022/01/26 10:05:22;;;;;;;52.35;14.68;;;;;;;;;;10312795;28;20054;-71
2022/01/26 10:15:27;;;;;;;20.08;12.32;;;;;;;;;;10306073;28;20050;-71
2022/01/26 10:16:18;;;;;;;24.35;13.80;;;;;;;;;;10309477;28;20074;-71
2022/01/26 10:21:22;;;;;;;20.55;13.20;;;;;;;;;;10308535;28;20050;-72
2022/01/26 10:26:26;;;;;;;21.95;11.70;;;;;;;;;;10302813;28;20094;-73
2022/01/26 10:31:32;;;;;;;22.63;11.55;;;;;;;;;;10298995;28;20031;-71
2022/01/26 10:36:45;;;;;;;23.73;13.60;;;;;;;;;;10329012;28;20336;-73
2022/01/26 10:41:50;;;;;;;24.92;13.85;;;;;;;;;;10299144;28;20115;-74
2022/01/26 10:46:59;;;;;;;45.13;15.25;;;;;;;;;;10305740;28;20436;-71
2022/01/26 10:52:18;;;;;;;26.08;13.88;;;;;;;;;;10301337;28;20039;-70
2022/01/26 10:57:23;;;;;;;21.73;13.00;;;;;;;;;;10302241;28;20431;-72
2022/01/26 11:02:30;;;;;;;22.80;12.60;;;;;;;;;;10303643;28;20360;-72
2022/01/26 11:07:36;;;;;;;22.30;12.65;;;;;;;;;;10301178;28;20051;-70
2022/01/26 11:12:39;;;;;;;26.08;13.50;;;;;;;;;;10303877;28;20072;-73
2022/01/26 11:17:46;;;;;;;21.27;12.73;;;;;;;;;;10296970;28;20047;-71
2022/01/26 11:22:51;;;;;;;24.48;13.18;;;;;;;;;;10304785;28;20503;-72
2022/01/26 11:27:55;;;;;;;20.98;11.35;;;;;;;;;;10299669;28;20121;-72
2022/01/26 11:33:00;;;;;;;23.05;11.75;;;;;;;;;;10299844;28;20038;-70
2022/01/26 11:38:10;;;;;;;21.45;12.13;;;;;;;;;;10303060;28;20051;-71
2022/01/26 11:48:26;;;;;;;22.20;13.05;;;;;;;;;;10310732;28;20027;-72
2022/01/26 11:53:29;;;;;;;27.63;13.85;;;;;;;;;;10299515;28;20476;-71
2022/01/26 11:58:34;;;;;;;26.65;14.68;;;;;;;;;;10296403;28;20050;-72
2022/01/26 12:03:46;;;;;;;89.97;19.38;;;;;;;;;;10297024;28;20420;-71
2022/01/26 12:08:49;;;;;;;24.70;13.85;;;;;;;;;;10302087;28;20031;-73
2022/01/26 12:13:58;;;;;;;47.13;18.38;;;;;;;;;;10306327;28;20034;-72
2022/01/26 12:19:22;;;;;;;24.80;14.90;;;;;;;;;;10318385;28;20069;-71
2022/01/26 12:35:21;;;;;;;30.52;15.18;;;;;;;;;;10317735;28;20073;-71
2022/01/26 12:45:46;;;;;;;29.42;15.13;;;;;;;;;;10302081;28;20042;-73
2022/01/26 12:50:51;;;;;;;30.98;15.20;;;;;;;;;;10297783;28;20046;-72
2022/01/26 12:55:55;;;;;;;28.40;14.63;;;;;;;;;;10307267;28;20046;-73
2022/01/26 13:01:02;;;;;;;32.35;16.05;;;;;;;;;;10295820;28;20046;-71
2022/01/26 13:06:14;;;;;;;32.45;17.05;;;;;;;;;;10303755;28;20039;-71
2022/01/26 13:11:22;;;;;;;32.50;16.58;;;;;;;;;;10299790;28;20050;-71
2022/01/26 13:16:27;;;;;;;31.40;14.63;;;;;;;;;;10298396;28;20431;-69
2022/01/26 13:27:00;;;;;;;24.83;13.07;;;;;;;;;;10302060;28;20141;-71
2022/01/26 13:32:24;;;;;;;25.42;12.63;;;;;;;;;;10303235;28;20073;-71
2022/01/26 13:37:40;;;;;;;21.63;9.93;;;;;;;;;;10304581;28;20419;-70
2022/01/26 13:53:44;;;;;;;28.58;13.30;;;;;;;;;;10301056;28;20034;-72
2022/01/26 13:59:02;;;;;;;16.52;7.45;;;;;;;;;;10304445;28;20046;-72
2022/01/26 14:04:06;;;;;;;29.73;10.27;;;;;;;;;;10299667;28;20070;-70
2022/01/26 14:09:10;;;;;;;26.25;11.18;;;;;;;;;;10304082;28;20057;-71
2022/01/26 14:14:20;;;;;;;27.38;11.77;;;;;;;;;;10307834;28;20038;-73
2022/01/26 14:19:30;;;;;;;28.50;12.15;;;;;;;;;;10299708;28;20106;-71
2022/01/26 14:24:52;;;;;;;27.70;9.85;;;;;;;;;;10334294;23;20323;-74
2022/01/26 14:30:12;;;;;;;27.98;11.90;;;;;;;;;;10340836;28;20445;-73
2022/01/26 14:35:28;;;;;;;29.70;10.20;;;;;;;;;;10328563;28;20108;-75
2022/01/26 14:51:48;;;;;;;26.63;8.90;;;;;;;;;;10339544;28;20061;-74
2022/01/26 15:35:01;;;;;;;16.80;5.37;;;;;;;;;;10286240;28;20042;-74
2022/01/26 15:40:19;;;;;;;24.20;9.00;;;;;;;;;;10339815;28;20169;-75
2022/01/26 15:51:04;;;;;;;19.17;5.57;;;;;;;;;;10339476;28;20037;-74
2022/01/26 16:07:04;;;;;;;18.17;5.90;;;;;;;;;;10349889;28;20062;-74
2022/01/26 16:18:45;;;;;;;19.97;7.33;;;;;;;;;;10348381;28;20038;-75
2022/01/26 16:44:20;;;;;;;11.70;4.23;;;;;;;;;;10338385;28;20040;-74
2022/01/26 18:16:18;;;;;;;26.13;7.47;;;;;;;;;;10342985;28;20042;-76
2022/01/26 18:26:48;;;;;;;37.13;11.73;;;;;;;;;;10345083;28;20065;-74
2022/01/26 18:32:09;;;;;;;26.00;8.37;;;;;;;;;;10345021;28;20498;-75
2022/01/26 18:53:55;;;;;;;31.03;8.83;;;;;;;;;;10347884;28;20212;-74
2022/01/26 18:58:59;;;;;;;25.70;7.20;;;;;;;;;;10342283;28;20449;-75
2022/01/26 19:04:02;;;;;;;43.03;11.20;;;;;;;;;;10335678;28;20142;-74
2022/01/26 19:09:05;;;;;;;26.20;8.00;;;;;;;;;;10342071;28;20069;-75
2022/01/26 19:14:09;;;;;;;43.50;12.97;;;;;;;;;;10346423;28;20045;-74
2022/01/26 19:19:23;;;;;;;39.10;10.20;;;;;;;;;;10339751;28;20042;-75
2022/01/26 19:24:50;;;;;;;9.25;4.72;;;;;;;;;;10332482;28;20402;-75
2022/01/26 19:41:47;;;;;;;16.67;6.40;;;;;;;;;;10343239;28;20066;-77
2022/01/26 19:46:37;;;;;;;40.93;12.50;;;;;;;;;;10345773;28;20097;-74
2022/01/26 19:51:51;;;;;;;29.07;8.50;;;;;;;;;;10332033;28;20126;-76
2022/01/26 19:56:54;;;;;;;28.92;10.02;;;;;;;;;;10340362;28;20045;-77
2022/01/26 20:01:59;;;;;;;25.47;8.93;;;;;;;;;;10336131;28;20580;-77
2022/01/26 20:07:06;;;;;;;31.77;8.70;;;;;;;;;;10340994;28;20407;-77
2022/01/26 20:12:19;;;;;;;25.43;6.53;;;;;;;;;;10344194;28;20108;-76
2022/01/26 20:17:26;;;;;;;31.53;10.00;;;;;;;;;;10344590;28;20073;-77
2022/01/26 20:22:30;;;;;;;15.70;7.37;;;;;;;;;;10338328;28;20506;-78
2022/01/26 20:27:35;;;;;;;16.38;6.57;;;;;;;;;;10388278;23;20104;-78
2022/01/26 20:32:39;;;;;;;33.30;9.17;;;;;;;;;;10395996;28;20053;-78
2022/01/26 20:37:42;;;;;;;29.17;8.07;;;;;;;;;;10408364;28;20057;-80
2022/01/26 20:42:46;;;;;;;47.70;13.87;;;;;;;;;;10410495;28;20047;-78
2022/01/26 20:47:52;;;;;;;44.20;12.43;;;;;;;;;;10409361;28;20041;-78
2022/01/26 20:52:54;;;;;;;25.10;8.03;;;;;;;;;;10398604;28;20370;-78
2022/01/26 20:57:57;;;;;;;37.80;11.43;;;;;;;;;;10404712;28;20050;-79
2022/01/26 21:03:02;;;;;;;18.00;6.60;;;;;;;;;;10415276;28;20041;-79
2022/01/26 21:08:05;;;;;;;28.80;8.00;;;;;;;;;;10402902;28;20072;-78
2022/01/26 21:13:08;;;;;;;43.43;11.77;;;;;;;;;;10413723;28;20072;-80
2022/01/26 21:18:13;;;;;;;13.60;4.53;;;;;;;;;;10410838;28;20033;-81
2022/01/26 21:23:16;;;;;;;36.23;10.67;;;;;;;;;;10406065;28;20049;-79
2022/01/26 21:28:19;;;;;;;36.20;10.90;;;;;;;;;;10412869;28;20033;-79
2022/01/26 21:33:24;;;;;;;20.43;7.80;;;;;;;;;;10394457;28;20461;-79
2022/01/26 21:38:27;;;;;;;31.53;7.57;;;;;;;;;;10407828;28;20091;-81
2022/01/26 21:43:30;;;;;;;19.87;7.23;;;;;;;;;;10395027;28;20045;-78
2022/01/26 21:48:34;;;;;;;26.20;7.80;;;;;;;;;;10410129;28;20091;-79
2022/01/26 21:53:37;;;;;;;34.25;10.55;;;;;;;;;;10417401;28;20083;-78
2022/01/26 21:58:40;;;;;;;34.40;10.23;;;;;;;;;;10415622;28;20135;-80
2022/01/26 22:03:44;;;;;;;11.67;3.97;;;;;;;;;;10421544;28;20038;-79
2022/01/26 22:08:47;;;;;;;;;;;;;;;;;;10434653;28;20050;-79
2022/01/26 22:13:50;;;;;;;16.80;4.97;;;;;;;;;;10408474;28;19929;-80
2022/01/26 22:18:54;;;;;;;23.93;7.50;;;;;;;;;;10417185;28;20026;-78
2022/01/26 22:23:57;;;;;;;25.37;7.30;;;;;;;;;;10424562;28;20030;-77
2022/01/26 22:29:00;;;;;;;26.83;9.13;;;;;;;;;;10420301;28;20060;-78
2022/01/26 22:34:04;;;;;;;19.87;6.83;;;;;;;;;;10437020;28;20037;-79
2022/01/26 22:39:07;;;;;;;;;;;;;;;;;;10420612;28;20049;-77
2022/01/26 22:44:10;;;;;;;30.23;8.60;;;;;;;;;;10431495;28;19980;-78
2022/01/26 22:49:14;;;;;;;27.90;9.23;;;;;;;;;;10437605;28;20055;-78
2022/01/26 22:54:17;;;;;;;25.50;8.27;;;;;;;;;;10433645;28;20048;-78
2022/01/26 22:59:20;;;;;;;23.13;8.07;;;;;;;;;;10424443;28;20089;-79
2022/01/26 23:04:26;;;;;;;13.07;5.10;;;;;;;;;;10429540;28;20037;-76
2022/01/26 23:09:29;;;;;;;22.57;8.27;;;;;;;;;;10423050;28;20033;-80
2022/01/26 23:14:32;;;;;;;33.97;9.83;;;;;;;;;;10424611;28;20065;-77
2022/01/26 23:19:57;;;;;;;33.65;9.65;;;;;;;;;;10426663;28;20105;-77
2022/01/26 23:25:08;;;;;;;43.40;10.68;;;;;;;;;;10440661;28;20050;-78
2022/01/26 23:30:46;;;;;;;30.93;9.20;;;;;;;;;;10427746;28;20080;-77
2022/01/26 23:36:02;;;;;;;25.13;7.17;;;;;;;;;;10446225;28;20045;-78
2022/01/26 23:57:30;;;;;;;27.70;9.93;;;;;;;;;;10437564;28;20068;-77
